KRSW/RSW METAR and TAF weather

Enter ICAO airport designator
Station Type Date Time Source
KRSW METAR 2021/07/30 07:53 UTC NOAA

KRSW 300753Z AUTO 00000KT 10SM CLR 24/22 A3001 RMK AO2 SLP160 T02390222


Station Type Date Time Source
KRSW Decoded METAR 2021/07/30 07:53 UTC NOAA

FORT MYERS SW FL INTERNATIONAL AIRPORT , FL, United States (KRSW) 26-32N 081-46W 9M
Jul 30, 2021 - 03:53 AM EDT / 2021.07.30 0753 UTC
Wind: Calm:0
Visibility: 10 mile(s):0
Sky conditions: clear
Temperature: 75.0 F (23.9 C)
Dew Point: 72.0 F (22.2 C)
Relative Humidity: 90%
Pressure (altimeter): 30.01 in. Hg (1016 hPa)
ob: KRSW 300753Z AUTO 00000KT 10SM CLR 24/22 A3001 RMK AO2 SLP160 T02390222
cycle: 8

Station Type Date Time Source
KRSW TAF 2021/07/30 06:24 UTC NOAA

TAF KRSW 300521Z 3006/3106 VRB03KT P6SM FEW030 SCT200
FM301500 23005KT P6SM SCT030 SCT200
FM301800 26007KT P6SM VCTS SCT030CB BKN200
FM310000 VRB04KT P6SM FEW040 SCT200

Example: see airport list